Terminal Aerodrome Forecast
Issued by NWS

Home | Current Version | Previous Version | Text Only | Print | Product List | Glossary On
Versions: 1 2 3 4 5 6 7 8 9 10 11 12 13 14 15
000
FTUS41 KCAR 010404 AAA
TAFFVE
TAF AMD
KFVE 010404Z 0104/0124 26010KT P6SM SCT200
     FM011800 22010G18KT P6SM BKN200
     FM012100 20010KT P6SM BKN060=

USA.gov is the U.S. government's official web portal to all federal, state and local government web resources and services.